Aviation Digital Data Service (ADDS)

Output produced by METARs form (1312 UTC 07 July 2015)
found at http://aviationweather.gov/adds/metars/
 
KPVD 071125Z 0712/0812 14005KT P6SM OVC009 
     FM071600 17010KT P6SM BKN040 
     FM080100 21009KT P6SM BKN050 
     FM080400 22008KT 6SM BR BKN020 
     FM080600 22007KT 4SM BR BKN008